createdAt,value
2022-09-13T00:01:21.071Z,14.1
2022-09-13T00:03:47.187Z,14
2022-09-13T00:06:13.318Z,14
2022-09-13T00:08:39.383Z,14
2022-09-13T00:11:05.460Z,14
2022-09-13T00:13:31.551Z,14
2022-09-13T00:15:57.654Z,13.9
2022-09-13T00:18:23.826Z,13.9
2022-09-13T00:20:49.831Z,13.9
2022-09-13T00:23:15.931Z,13.9
2022-09-13T00:25:41.048Z,13.9
2022-09-13T00:28:07.147Z,13.9
2022-09-13T00:30:33.232Z,13.8
2022-09-13T00:32:59.348Z,13.8
2022-09-13T00:35:25.428Z,13.8
2022-09-13T00:37:51.527Z,13.8
2022-09-13T00:40:17.611Z,13.8
2022-09-13T00:42:43.709Z,13.8
2022-09-13T00:45:09.858Z,13.8
2022-09-13T00:47:35.903Z,13.8
2022-09-13T00:50:02.011Z,13.8
2022-09-13T00:52:28.092Z,13.8
2022-09-13T00:54:54.190Z,13.8
2022-09-13T00:57:19.303Z,13.7
2022-09-13T00:59:45.402Z,13.7
2022-09-13T01:02:11.493Z,13.7
2022-09-13T01:04:37.602Z,13.7
2022-09-13T01:07:03.685Z,13.6
2022-09-13T01:09:29.780Z,13.6
2022-09-13T01:11:55.876Z,13.6
2022-09-13T01:14:21.974Z,13.5
2022-09-13T01:16:48.077Z,13.5
2022-09-13T01:19:14.148Z,13.5
2022-09-13T01:21:40.245Z,13.5
2022-09-13T01:24:06.353Z,13.5
2022-09-13T01:26:32.444Z,13.4
2022-09-13T01:28:57.562Z,13.4
2022-09-13T01:31:23.677Z,13.4
2022-09-13T01:33:49.746Z,13.4
2022-09-13T01:36:15.914Z,13.4
2022-09-13T01:38:41.944Z,13.3
2022-09-13T01:41:08.025Z,13.3
2022-09-13T01:43:34.125Z,13.3
2022-09-13T01:46:00.214Z,13.3
2022-09-13T01:48:26.349Z,13.3
2022-09-13T01:50:52.412Z,13.3
2022-09-13T01:53:18.515Z,13.2
2022-09-13T01:55:44.593Z,13.2
2022-09-13T01:58:10.714Z,13.2
2022-09-13T02:00:35.832Z,13.2
2022-09-13T02:03:01.895Z,13.2
2022-09-13T02:05:28.049Z,13.2
2022-09-13T02:07:54.083Z,13.2
2022-09-13T02:10:20.204Z,13.1
2022-09-13T02:12:46.281Z,13.1
2022-09-13T02:15:11.406Z,13.1
2022-09-13T02:20:03.597Z,13.1
2022-09-13T02:22:29.684Z,13.1
2022-09-13T02:24:55.780Z,13.1
2022-09-13T02:27:21.869Z,13
2022-09-13T02:29:47.954Z,13
2022-09-13T02:32:14.071Z,13
2022-09-13T02:34:40.168Z,13
2022-09-13T02:37:06.244Z,12.9
2022-09-13T02:39:32.392Z,12.9
2022-09-13T02:41:58.436Z,12.9
2022-09-13T02:44:24.545Z,12.9
2022-09-13T02:46:49.647Z,12.9
2022-09-13T02:49:15.759Z,12.9
2022-09-13T02:51:41.843Z,12.8
2022-09-13T02:54:07.944Z,12.8
2022-09-13T02:56:34.036Z,12.8
2022-09-13T02:59:00.131Z,12.8
2022-09-13T03:01:26.214Z,12.8
2022-09-13T03:03:52.319Z,12.8
2022-09-13T03:06:18.462Z,12.8
2022-09-13T03:08:44.495Z,12.8
2022-09-13T03:11:10.594Z,12.7
2022-09-13T03:13:36.750Z,12.7
2022-09-13T03:16:02.803Z,12.7
2022-09-13T03:18:27.915Z,12.7
2022-09-13T03:20:54.011Z,12.6
2022-09-13T03:23:20.105Z,12.6
2022-09-13T03:25:46.180Z,12.6
2022-09-13T03:28:12.296Z,12.6
2022-09-13T03:30:38.383Z,12.6
2022-09-13T03:33:04.516Z,12.6
2022-09-13T03:35:30.611Z,12.6
2022-09-13T03:37:56.675Z,12.5
2022-09-13T03:40:22.754Z,12.5
2022-09-13T03:42:48.863Z,12.5
2022-09-13T03:45:15.069Z,12.5
2022-09-13T03:47:41.042Z,12.5
2022-09-13T03:50:06.157Z,12.5
2022-09-13T03:52:32.267Z,12.4
2022-09-13T03:54:58.360Z,12.4
2022-09-13T03:57:24.447Z,12.4
2022-09-13T03:59:50.536Z,12.4
2022-09-13T04:02:16.646Z,12.4
2022-09-13T04:04:42.730Z,12.4
2022-09-13T04:07:08.825Z,12.4
2022-09-13T04:09:34.932Z,12.4
2022-09-13T04:12:01.086Z,12.4
2022-09-13T04:14:27.110Z,12.4
2022-09-13T04:16:53.221Z,12.4
2022-09-13T04:19:19.324Z,12.3
2022-09-13T04:21:44.489Z,12.3
2022-09-13T04:24:10.562Z,12.3
2022-09-13T04:26:36.602Z,12.3
2022-09-13T04:29:02.709Z,12.3
2022-09-13T04:31:28.789Z,12.3
2022-09-13T04:33:54.939Z,12.3
2022-09-13T04:36:20.989Z,12.2
2022-09-13T04:38:47.091Z,12.2
2022-09-13T04:41:13.214Z,12.2
2022-09-13T04:43:39.277Z,12.2
2022-09-13T04:46:05.375Z,12.2
2022-09-13T04:48:31.474Z,12.2
2022-09-13T04:50:57.545Z,12.3
2022-09-13T04:53:22.668Z,12.3
2022-09-13T04:55:48.823Z,12.3
2022-09-13T04:58:14.885Z,12.3
2022-09-13T05:00:40.962Z,12.4
2022-09-13T05:03:07.062Z,12.4
2022-09-13T05:05:33.234Z,12.5
2022-09-13T05:07:59.245Z,12.5
2022-09-13T05:10:25.363Z,12.6
2022-09-13T05:12:51.449Z,12.6
2022-09-13T05:15:17.534Z,12.7
2022-09-13T05:17:43.703Z,12.7
2022-09-13T05:20:09.740Z,12.7
2022-09-13T05:22:35.811Z,12.8
2022-09-13T05:25:00.933Z,12.8
2022-09-13T05:27:27.062Z,12.8
2022-09-13T05:29:53.124Z,12.9
2022-09-13T05:32:19.229Z,12.9
2022-09-13T05:34:45.346Z,12.9
2022-09-13T05:37:11.394Z,12.9
2022-09-13T05:39:37.533Z,13
2022-09-13T05:42:03.615Z,13
2022-09-13T05:44:29.948Z,13
2022-09-13T05:46:55.779Z,13
2022-09-13T05:49:21.890Z,13.1
2022-09-13T05:51:48.026Z,13.1
2022-09-13T05:54:14.077Z,13.1
2022-09-13T05:56:39.185Z,13.1
2022-09-13T05:59:05.312Z,13.1
2022-09-13T06:01:31.363Z,13.2
2022-09-13T06:03:57.480Z,13.2
2022-09-13T06:06:23.565Z,13.2
2022-09-13T06:08:49.654Z,13.3
2022-09-13T06:11:15.747Z,13.3
2022-09-13T06:13:41.854Z,13.4
2022-09-13T06:16:07.951Z,13.4
2022-09-13T06:18:34.029Z,13.5
2022-09-13T06:21:00.140Z,13.6
2022-09-13T06:23:26.222Z,13.7
2022-09-13T06:25:52.367Z,13.8
2022-09-13T06:28:17.495Z,13.8
2022-09-13T06:30:43.519Z,13.9
2022-09-13T06:33:09.639Z,14
2022-09-13T06:35:35.740Z,14.1
2022-09-13T06:38:01.804Z,14.1
2022-09-13T06:40:27.917Z,14.2
2022-09-13T06:42:54.009Z,14.2
2022-09-13T06:45:20.171Z,14.2
2022-09-13T06:47:46.198Z,14.2
2022-09-13T06:50:12.282Z,14.2
2022-09-13T06:52:38.425Z,14.3
2022-09-13T06:55:04.490Z,14.3
2022-09-13T06:57:30.564Z,14.3
2022-09-13T06:59:55.723Z,14.3
2022-09-13T07:02:21.808Z,14.3
2022-09-13T07:04:47.872Z,14.3
2022-09-13T07:07:13.985Z,14.3
2022-09-13T07:09:40.075Z,14.4
2022-09-13T07:12:06.222Z,14.4
2022-09-13T07:14:32.261Z,14.5
2022-09-13T07:16:58.362Z,14.5
2022-09-13T07:19:24.450Z,14.6
2022-09-13T07:21:50.540Z,14.7
2022-09-13T07:24:16.635Z,14.8
2022-09-13T07:26:42.780Z,14.9
2022-09-13T07:29:08.845Z,15
2022-09-13T07:31:33.950Z,15.1
2022-09-13T07:34:00.051Z,15.2
2022-09-13T07:36:26.133Z,15.2
2022-09-13T07:38:52.220Z,15.3
2022-09-13T07:41:18.350Z,15.3
2022-09-13T07:43:44.424Z,15.4
2022-09-13T07:46:10.516Z,15.5
2022-09-13T07:48:36.606Z,15.5
2022-09-13T07:51:02.701Z,15.6
2022-09-13T07:53:28.830Z,15.7
2022-09-13T07:55:54.891Z,15.8
2022-09-13T07:58:21.003Z,15.9
2022-09-13T08:00:47.087Z,16
2022-09-13T08:03:12.231Z,16.1
2022-09-13T08:05:38.291Z,16.2
2022-09-13T08:08:04.417Z,16.3
2022-09-13T08:10:30.496Z,16.5
2022-09-13T08:12:56.585Z,16.6
2022-09-13T08:15:22.677Z,16.8
2022-09-13T08:17:48.779Z,17
2022-09-13T08:20:14.873Z,17.2
2022-09-13T08:22:40.958Z,17.3
2022-09-13T08:25:07.049Z,17.5
2022-09-13T08:27:33.153Z,17.7
2022-09-13T08:29:59.239Z,17.8
2022-09-13T08:32:25.353Z,18
2022-09-13T08:34:50.452Z,18.1
2022-09-13T08:37:16.596Z,18.2
2022-09-13T08:39:42.638Z,18.3
2022-09-13T08:42:08.733Z,18.5
2022-09-13T08:44:34.830Z,18.6
2022-09-13T08:47:00.939Z,18.7
2022-09-13T08:49:27.047Z,18.8
2022-09-13T08:51:53.126Z,18.9
2022-09-13T08:54:19.228Z,19
2022-09-13T08:56:45.328Z,19.1
2022-09-13T08:59:11.409Z,19.2
2022-09-13T09:01:37.517Z,19.3
2022-09-13T09:04:03.609Z,19.4
2022-09-13T09:06:28.764Z,19.5
2022-09-13T09:08:54.864Z,19.7
2022-09-13T09:11:20.934Z,19.9
2022-09-13T09:13:47.043Z,20
2022-09-13T09:16:13.182Z,20.2
2022-09-13T09:18:39.220Z,20.5
2022-09-13T09:21:05.305Z,20.7
2022-09-13T09:23:31.473Z,21
2022-09-13T09:25:57.598Z,21.2
2022-09-13T09:28:23.692Z,21.4
2022-09-13T09:30:49.686Z,21.7
2022-09-13T09:33:15.882Z,21.9
2022-09-13T09:35:41.846Z,22.1
2022-09-13T09:38:07.004Z,22.3
2022-09-13T09:40:33.165Z,22.5
2022-09-13T09:42:59.162Z,22.6
2022-09-13T09:45:25.396Z,22.7
2022-09-13T09:47:51.469Z,22.8
2022-09-13T09:50:17.450Z,22.9
2022-09-13T09:52:43.532Z,22.9
2022-09-13T09:55:09.659Z,23
2022-09-13T09:57:35.773Z,23.1
2022-09-13T10:00:01.883Z,23.2
2022-09-13T10:02:27.930Z,23.3
2022-09-13T10:04:54.122Z,23.4
2022-09-13T10:07:20.132Z,23.5
2022-09-13T10:09:45.233Z,23.5
2022-09-13T10:12:11.320Z,23.6
2022-09-13T10:14:37.408Z,23.6
2022-09-13T10:17:03.501Z,23.6
2022-09-13T10:19:29.622Z,23.6
2022-09-13T10:21:55.787Z,23.7
2022-09-13T10:24:20.823Z,23.7
2022-09-13T10:26:46.965Z,23.6
2022-09-13T10:29:13.010Z,23.6
2022-09-13T10:31:39.090Z,23.6
2022-09-13T10:34:05.201Z,23.5
2022-09-13T10:36:31.284Z,23.5
2022-09-13T10:38:57.399Z,23.4
2022-09-13T10:41:23.474Z,23.4
2022-09-13T10:43:49.561Z,23.3
2022-09-13T10:46:15.678Z,23.3
2022-09-13T10:48:41.751Z,23.3
2022-09-13T10:51:07.863Z,23.3
2022-09-13T10:53:33.949Z,23.3
2022-09-13T10:55:59.073Z,23.3
2022-09-13T10:58:25.160Z,23.3
2022-09-13T11:00:51.256Z,23.3
2022-09-13T11:03:17.337Z,23.3
2022-09-13T11:05:43.443Z,23.4
2022-09-13T11:08:09.545Z,23.4
2022-09-13T11:10:35.657Z,23.5
2022-09-13T11:13:01.720Z,23.6
2022-09-13T11:15:27.839Z,23.7
2022-09-13T11:17:53.956Z,23.9
2022-09-13T11:20:20.014Z,24
2022-09-13T11:22:46.097Z,24.2
2022-09-13T11:25:12.215Z,24.5
2022-09-13T11:27:37.304Z,24.7
2022-09-13T11:30:03.443Z,24.9
2022-09-13T11:32:29.557Z,25.1
2022-09-13T11:34:55.598Z,25.3
2022-09-13T11:37:21.689Z,25.5
2022-09-13T11:39:47.786Z,25.7
2022-09-13T11:42:13.897Z,25.9
2022-09-13T11:44:39.989Z,26.1
2022-09-13T11:47:06.071Z,26.3
2022-09-13T11:49:32.231Z,26.5
2022-09-13T11:51:58.281Z,26.7
2022-09-13T11:54:24.355Z,26.8
2022-09-13T11:56:50.550Z,27
2022-09-13T11:59:15.596Z,27.1
2022-09-13T12:01:41.655Z,27.1
2022-09-13T12:04:07.791Z,27.2
2022-09-13T12:06:33.855Z,27.2
2022-09-13T12:08:59.941Z,27.3
2022-09-13T12:11:26.051Z,27.3
2022-09-13T12:13:52.195Z,27.3
2022-09-13T12:16:18.226Z,27.4
2022-09-13T12:18:44.350Z,27.4
2022-09-13T12:21:10.431Z,27.5
2022-09-13T12:23:36.587Z,27.6
2022-09-13T12:26:02.669Z,27.7
2022-09-13T12:28:28.743Z,27.7
2022-09-13T12:30:53.835Z,27.8
2022-09-13T12:33:19.946Z,27.9
2022-09-13T12:35:46.044Z,28
2022-09-13T12:38:12.123Z,28.1
2022-09-13T12:40:38.224Z,28.2
2022-09-13T12:43:04.316Z,28.2
2022-09-13T12:45:30.416Z,28.3
2022-09-13T12:47:56.523Z,28.3
2022-09-13T12:50:22.638Z,28.3
2022-09-13T12:52:48.742Z,28.3
2022-09-13T12:55:14.813Z,28.4
2022-09-13T12:57:40.932Z,28.4
2022-09-13T13:00:06.973Z,28.5
2022-09-13T13:02:32.133Z,28.5
2022-09-13T13:04:58.181Z,28.6
2022-09-13T13:07:24.368Z,28.6
2022-09-13T13:09:50.439Z,28.6
2022-09-13T13:12:16.536Z,28.7
2022-09-13T13:14:42.586Z,28.7
2022-09-13T13:17:08.711Z,28.7
2022-09-13T13:19:34.778Z,28.7
2022-09-13T13:22:00.866Z,28.7
2022-09-13T13:24:26.985Z,28.8
2022-09-13T13:26:53.092Z,28.8
2022-09-13T13:29:19.153Z,28.9
2022-09-13T13:31:45.257Z,28.9
2022-09-13T13:34:10.354Z,29
2022-09-13T13:36:36.443Z,29
2022-09-13T13:39:02.547Z,29.1
2022-09-13T13:41:28.639Z,29.1
2022-09-13T13:43:54.748Z,29.2
2022-09-13T13:46:20.823Z,29.3
2022-09-13T13:48:46.923Z,29.4
2022-09-13T13:51:13.123Z,29.5
2022-09-13T13:53:39.207Z,29.5
2022-09-13T13:56:05.230Z,29.6
2022-09-13T13:58:31.355Z,29.7
2022-09-13T14:00:57.479Z,29.8
2022-09-13T14:03:23.549Z,30
2022-09-13T14:05:48.599Z,30.2
2022-09-13T14:08:14.760Z,30.5
2022-09-13T14:10:40.837Z,30.8
2022-09-13T14:13:06.914Z,31.1
2022-09-13T14:15:33.021Z,31.3
2022-09-13T14:17:59.164Z,31.3
2022-09-13T14:20:25.174Z,31.3
2022-09-13T14:22:51.313Z,31.2
2022-09-13T14:25:17.453Z,31.1
2022-09-13T14:27:43.463Z,31
2022-09-13T14:30:09.568Z,30.9
2022-09-13T14:32:35.660Z,30.8
2022-09-13T14:35:01.771Z,30.7
2022-09-13T14:37:26.910Z,30.5
2022-09-13T14:39:52.958Z,30.4
2022-09-13T14:42:19.060Z,30.3
2022-09-13T14:44:45.289Z,30.4
2022-09-13T14:47:11.351Z,30.7
2022-09-13T14:49:37.382Z,30.8
2022-09-13T14:52:03.540Z,30.9
2022-09-13T14:54:29.560Z,30.9
2022-09-13T14:56:55.696Z,30.9
2022-09-13T14:59:21.752Z,30.9
2022-09-13T15:01:47.845Z,31
2022-09-13T15:04:13.994Z,31.4
2022-09-13T15:06:40.069Z,31.9
2022-09-13T15:09:05.234Z,32.3
2022-09-13T15:11:31.280Z,32.7
2022-09-13T15:13:57.333Z,33
2022-09-13T15:16:23.413Z,33.3
2022-09-13T15:18:49.569Z,33.4
2022-09-13T15:21:15.660Z,33.4
2022-09-13T15:23:41.713Z,33.2
2022-09-13T15:26:07.809Z,33
2022-09-13T15:28:33.943Z,32.7
2022-09-13T15:31:00.001Z,32.4
2022-09-13T15:35:52.190Z,31.8
2022-09-13T15:38:18.303Z,31.4
2022-09-13T15:40:43.395Z,31.1
2022-09-13T15:43:09.529Z,30.8
2022-09-13T15:45:35.596Z,30.5
2022-09-13T15:52:53.889Z,29.6
2022-09-13T15:55:19.034Z,29.4
2022-09-13T15:57:44.104Z,29.1
2022-09-13T16:00:09.224Z,28.9
2022-09-13T16:02:34.337Z,28.7
2022-09-13T16:05:00.453Z,28.5
2022-09-13T16:07:26.550Z,28.3
2022-09-13T16:09:52.629Z,28.1
2022-09-13T16:12:18.712Z,27.9
2022-09-13T16:14:44.828Z,27.7
2022-09-13T16:17:10.953Z,27.5
2022-09-13T16:19:37.009Z,27.3
2022-09-13T16:22:03.108Z,27.2
2022-09-13T16:24:29.209Z,27
2022-09-13T16:26:54.377Z,26.9
2022-09-13T16:29:19.524Z,26.7
2022-09-13T16:31:44.644Z,26.6
2022-09-13T16:34:09.675Z,26.5
2022-09-13T16:36:35.760Z,26.3
2022-09-13T16:39:01.857Z,26.2
2022-09-13T16:41:27.995Z,26.1
2022-09-13T16:43:54.046Z,25.9
2022-09-13T16:46:20.193Z,25.8
2022-09-13T16:48:46.302Z,25.7
2022-09-13T16:51:12.346Z,25.6
2022-09-13T16:53:38.423Z,25.4
2022-09-13T16:56:04.516Z,25.3
2022-09-13T16:58:30.673Z,25.2
2022-09-13T17:00:56.732Z,25.1
2022-09-13T17:03:22.851Z,25
2022-09-13T17:05:48.019Z,24.9
2022-09-13T17:08:14.055Z,24.8
2022-09-13T17:10:40.193Z,24.7
2022-09-13T17:13:06.203Z,24.6
2022-09-13T17:15:32.394Z,24.4
2022-09-13T17:17:58.398Z,24.3
2022-09-13T17:20:24.487Z,24.2
2022-09-13T17:22:49.610Z,24.1
2022-09-13T17:25:14.788Z,24
2022-09-13T17:27:39.860Z,23.9
2022-09-13T17:30:04.960Z,23.8
2022-09-13T17:32:31.136Z,23.7
2022-09-13T17:34:57.204Z,23.6
2022-09-13T17:37:23.244Z,23.5
2022-09-13T17:39:49.350Z,23.4
2022-09-13T17:42:15.481Z,23.3
2022-09-13T17:44:41.521Z,23.2
2022-09-13T17:47:07.676Z,23.1
2022-09-13T17:49:33.717Z,23
2022-09-13T17:51:59.817Z,22.9
2022-09-13T17:54:25.913Z,22.8
2022-09-13T17:56:52.027Z,22.7
2022-09-13T17:59:18.100Z,22.7
2022-09-13T18:01:43.213Z,22.6
2022-09-13T18:04:09.305Z,22.5
2022-09-13T18:06:35.401Z,22.4
2022-09-13T18:09:01.489Z,22.4
2022-09-13T18:11:27.637Z,22.3
2022-09-13T18:13:53.673Z,22.2
2022-09-13T18:16:19.780Z,22.1
2022-09-13T18:18:44.889Z,22.1
2022-09-13T18:21:10.006Z,22
2022-09-13T18:23:36.094Z,21.9
2022-09-13T18:26:02.205Z,21.9
2022-09-13T18:28:28.290Z,21.8
2022-09-13T18:30:54.379Z,21.7
2022-09-13T18:33:19.500Z,21.7
2022-09-13T18:35:45.605Z,21.6
2022-09-13T18:38:11.742Z,21.5
2022-09-13T18:40:37.786Z,21.5
2022-09-13T18:43:03.898Z,21.4
2022-09-13T18:45:29.961Z,21.4
2022-09-13T18:47:56.087Z,21.3
2022-09-13T18:50:22.156Z,21.2
2022-09-13T18:52:48.251Z,21.2
2022-09-13T18:55:14.397Z,21.1
2022-09-13T18:57:40.459Z,21.1
2022-09-13T19:00:06.557Z,21
2022-09-13T19:02:32.639Z,20.9
2022-09-13T19:04:57.761Z,20.9
2022-09-13T19:07:23.847Z,20.9
2022-09-13T19:09:48.971Z,20.8
2022-09-13T19:12:14.083Z,20.8
2022-09-13T19:14:39.233Z,20.7
2022-09-13T19:17:04.325Z,20.7
2022-09-13T19:19:29.470Z,20.7
2022-09-13T19:21:54.545Z,20.7
2022-09-13T19:24:20.679Z,20.7
2022-09-13T19:26:46.742Z,20.6
2022-09-13T19:29:12.905Z,20.6
2022-09-13T19:31:38.950Z,20.6
2022-09-13T19:34:05.026Z,20.5
2022-09-13T19:36:31.129Z,20.5
2022-09-13T19:38:57.234Z,20.5
2022-09-13T19:41:23.337Z,20.5
2022-09-13T19:43:49.407Z,20.4
2022-09-13T19:46:15.518Z,20.4
2022-09-13T19:48:41.610Z,20.4
2022-09-13T19:51:07.706Z,20.4
2022-09-13T19:53:32.814Z,20.3
2022-09-13T19:55:58.907Z,20.3
2022-09-13T19:58:25.001Z,20.3
2022-09-13T20:00:51.108Z,20.3
2022-09-13T20:03:17.202Z,20.2
2022-09-13T20:05:43.277Z,20.2
2022-09-13T20:08:09.398Z,20.1
2022-09-13T20:10:34.516Z,20.1
2022-09-13T20:12:59.652Z,20.1
2022-09-13T20:15:25.716Z,20.1
2022-09-13T20:17:51.810Z,20.1
2022-09-13T20:20:17.892Z,20
2022-09-13T20:22:43.995Z,20
2022-09-13T20:25:10.104Z,20
2022-09-13T20:27:36.241Z,19.9
2022-09-13T20:30:02.333Z,19.9
2022-09-13T20:32:28.407Z,19.9
2022-09-13T20:34:54.493Z,19.9
2022-09-13T20:37:20.557Z,19.9
2022-09-13T20:39:46.665Z,19.8
2022-09-13T20:42:12.771Z,19.8
2022-09-13T20:44:37.870Z,19.8
2022-09-13T20:47:03.960Z,19.8
2022-09-13T20:49:30.308Z,19.7
2022-09-13T20:51:56.150Z,19.7
2022-09-13T20:54:22.252Z,19.7
2022-09-13T20:56:48.337Z,19.6
2022-09-13T20:59:14.429Z,19.6
2022-09-13T21:01:39.561Z,19.6
2022-09-13T21:04:04.680Z,19.5
2022-09-13T21:06:29.787Z,19.5
2022-09-13T21:08:54.895Z,19.5
2022-09-13T21:11:20.981Z,19.5
2022-09-13T21:13:47.108Z,19.5
2022-09-13T21:16:13.178Z,19.5
2022-09-13T21:18:39.286Z,19.5
2022-09-13T21:23:31.461Z,19.5
2022-09-13T21:25:57.567Z,19.5
2022-09-13T21:28:23.658Z,19.5
2022-09-13T21:30:49.762Z,19.5
2022-09-13T21:33:15.839Z,19.5
2022-09-13T21:35:41.931Z,19.5
2022-09-13T21:38:08.046Z,19.5
2022-09-13T21:40:33.140Z,19.5
2022-09-13T21:42:59.270Z,19.5
2022-09-13T21:45:25.337Z,19.5
2022-09-13T21:47:51.436Z,19.5
2022-09-13T21:50:17.588Z,19.5
2022-09-13T21:52:43.615Z,19.5
2022-09-13T21:55:09.727Z,19.5
2022-09-13T21:57:35.832Z,19.5
2022-09-13T22:00:00.931Z,19.5
2022-09-13T22:02:26.045Z,19.5
2022-09-13T22:04:51.207Z,19.5
2022-09-13T22:07:16.296Z,19.5
2022-09-13T22:09:42.380Z,19.5
2022-09-13T22:12:08.494Z,19.5
2022-09-13T22:14:34.583Z,19.5
2022-09-13T22:17:00.710Z,19.5
2022-09-13T22:19:26.762Z,19.5
2022-09-13T22:21:52.848Z,19.5
2022-09-13T22:24:18.944Z,19.4
2022-09-13T22:26:45.054Z,19.4
2022-09-13T22:29:11.125Z,19.4
2022-09-13T22:31:37.241Z,19.4
2022-09-13T22:34:03.338Z,19.3
2022-09-13T22:36:29.417Z,19.3
2022-09-13T22:38:54.529Z,19.3
2022-09-13T22:41:20.628Z,19.3
2022-09-13T22:43:46.710Z,19.2
2022-09-13T22:46:12.809Z,19.2
2022-09-13T22:48:38.897Z,19.2
2022-09-13T22:51:05.012Z,19.2
2022-09-13T22:53:31.342Z,19.2
2022-09-13T22:55:57.199Z,19.2
2022-09-13T22:58:23.287Z,19.2
2022-09-13T23:00:48.407Z,19.2
2022-09-13T23:03:13.525Z,19.2
2022-09-13T23:05:39.643Z,19.2
2022-09-13T23:08:05.708Z,19.2
2022-09-13T23:10:31.825Z,19.2
2022-09-13T23:12:57.921Z,19.2
2022-09-13T23:15:24.007Z,19.2
2022-09-13T23:17:50.091Z,19.2
2022-09-13T23:20:16.200Z,19.2
2022-09-13T23:22:42.280Z,19.2
2022-09-13T23:25:08.380Z,19.2
2022-09-13T23:27:34.474Z,19.2
2022-09-13T23:30:00.552Z,19.2
2022-09-13T23:32:26.654Z,19.2
2022-09-13T23:34:51.786Z,19.2
2022-09-13T23:37:17.882Z,19.1
2022-09-13T23:39:43.951Z,19.1
2022-09-13T23:42:10.070Z,19.1
2022-09-13T23:44:36.133Z,19.1
2022-09-13T23:47:02.283Z,19.1
2022-09-13T23:49:28.379Z,19.1
2022-09-13T23:51:53.524Z,19.1
2022-09-13T23:54:18.610Z,19.1
2022-09-13T23:56:43.705Z,19.1
2022-09-13T23:59:08.866Z,19.1
